sensor_id;sensor_type;location;lat;lon;timestamp;P1;durP1;ratioP1;P2;durP2;ratioP2
29774;SDS011;16676;51.202;6.774;2022-11-15T00:01:33;4.28;;;3.00;;
29774;SDS011;16676;51.202;6.774;2022-11-15T00:05:37;3.22;;;2.88;;
29774;SDS011;16676;51.202;6.774;2022-11-15T00:09:40;3.90;;;2.78;;
29774;SDS011;16676;51.202;6.774;2022-11-15T00:13:42;4.57;;;3.13;;
29774;SDS011;16676;51.202;6.774;2022-11-15T00:17:44;3.25;;;2.75;;
29774;SDS011;16676;51.202;6.774;2022-11-15T00:21:49;4.03;;;2.55;;
29774;SDS011;16676;51.202;6.774;2022-11-15T00:25:56;4.30;;;2.72;;
29774;SDS011;16676;51.202;6.774;2022-11-15T00:29:59;3.45;;;2.90;;
29774;SDS011;16676;51.202;6.774;2022-11-15T00:34:01;4.50;;;3.00;;
29774;SDS011;16676;51.202;6.774;2022-11-15T00:38:03;4.88;;;2.80;;
29774;SDS011;16676;51.202;6.774;2022-11-15T00:42:06;3.25;;;2.63;;
29774;SDS011;16676;51.202;6.774;2022-11-15T00:46:08;4.32;;;2.85;;
29774;SDS011;16676;51.202;6.774;2022-11-15T00:50:10;3.40;;;2.63;;
29774;SDS011;16676;51.202;6.774;2022-11-15T00:54:12;3.28;;;2.67;;
29774;SDS011;16676;51.202;6.774;2022-11-15T00:58:16;3.83;;;2.85;;
29774;SDS011;16676;51.202;6.774;2022-11-15T01:02:18;4.07;;;2.90;;
29774;SDS011;16676;51.202;6.774;2022-11-15T01:06:20;3.40;;;2.40;;
29774;SDS011;16676;51.202;6.774;2022-11-15T01:10:22;4.88;;;2.95;;
29774;SDS011;16676;51.202;6.774;2022-11-15T01:14:27;4.18;;;3.05;;
29774;SDS011;16676;51.202;6.774;2022-11-15T01:18:29;3.97;;;2.65;;
29774;SDS011;16676;51.202;6.774;2022-11-15T01:22:31;4.13;;;2.85;;
29774;SDS011;16676;51.202;6.774;2022-11-15T01:26:33;3.97;;;2.90;;
29774;SDS011;16676;51.202;6.774;2022-11-15T01:30:36;3.47;;;2.72;;
29774;SDS011;16676;51.202;6.774;2022-11-15T01:34:38;3.70;;;2.72;;
29774;SDS011;16676;51.202;6.774;2022-11-15T01:38:40;3.38;;;2.60;;
29774;SDS011;16676;51.202;6.774;2022-11-15T01:42:43;4.90;;;2.72;;
29774;SDS011;16676;51.202;6.774;2022-11-15T01:46:47;3.65;;;2.45;;
29774;SDS011;16676;51.202;6.774;2022-11-15T01:50:49;4.45;;;2.70;;
29774;SDS011;16676;51.202;6.774;2022-11-15T01:54:53;3.15;;;2.45;;
29774;SDS011;16676;51.202;6.774;2022-11-15T01:58:59;3.80;;;2.67;;
29774;SDS011;16676;51.202;6.774;2022-11-15T02:03:05;3.17;;;2.35;;
29774;SDS011;16676;51.202;6.774;2022-11-15T02:07:08;3.25;;;2.20;;
29774;SDS011;16676;51.202;6.774;2022-11-15T02:11:12;3.10;;;2.42;;
29774;SDS011;16676;51.202;6.774;2022-11-15T02:15:14;3.00;;;2.30;;
29774;SDS011;16676;51.202;6.774;2022-11-15T02:19:24;3.28;;;2.70;;
29774;SDS011;16676;51.202;6.774;2022-11-15T02:28:23;3.38;;;2.38;;
29774;SDS011;16676;51.202;6.774;2022-11-15T02:32:36;2.47;;;2.28;;
29774;SDS011;16676;51.202;6.774;2022-11-15T02:36:47;3.20;;;2.60;;
29774;SDS011;16676;51.202;6.774;2022-11-15T02:40:57;3.70;;;2.72;;
29774;SDS011;16676;51.202;6.774;2022-11-15T02:45:03;3.40;;;2.47;;
29774;SDS011;16676;51.202;6.774;2022-11-15T02:49:11;4.68;;;2.75;;
29774;SDS011;16676;51.202;6.774;2022-11-15T02:53:15;3.25;;;2.42;;
29774;SDS011;16676;51.202;6.774;2022-11-15T02:57:17;3.17;;;2.47;;
29774;SDS011;16676;51.202;6.774;2022-11-15T03:01:34;3.45;;;2.28;;
29774;SDS011;16676;51.202;6.774;2022-11-15T03:05:50;3.80;;;2.47;;
29774;SDS011;16676;51.202;6.774;2022-11-15T03:09:59;3.72;;;2.42;;
29774;SDS011;16676;51.202;6.774;2022-11-15T03:14:08;2.92;;;2.30;;
29774;SDS011;16676;51.202;6.774;2022-11-15T03:18:21;2.65;;;2.33;;
29774;SDS011;16676;51.202;6.774;2022-11-15T03:22:30;3.42;;;2.55;;
29774;SDS011;16676;51.202;6.774;2022-11-15T03:26:36;3.10;;;2.40;;
29774;SDS011;16676;51.202;6.774;2022-11-15T03:30:41;3.45;;;2.60;;
29774;SDS011;16676;51.202;6.774;2022-11-15T03:34:46;3.63;;;2.53;;
29774;SDS011;16676;51.202;6.774;2022-11-15T03:38:52;3.47;;;2.33;;
29774;SDS011;16676;51.202;6.774;2022-11-15T03:42:59;3.13;;;2.40;;
29774;SDS011;16676;51.202;6.774;2022-11-15T03:47:06;2.88;;;2.38;;
29774;SDS011;16676;51.202;6.774;2022-11-15T03:51:11;4.75;;;2.80;;
29774;SDS011;16676;51.202;6.774;2022-11-15T03:55:16;2.72;;;2.22;;
29774;SDS011;16676;51.202;6.774;2022-11-15T03:59:20;5.20;;;2.42;;
29774;SDS011;16676;51.202;6.774;2022-11-15T04:03:22;3.90;;;2.40;;
29774;SDS011;16676;51.202;6.774;2022-11-15T04:07:24;3.63;;;2.53;;
29774;SDS011;16676;51.202;6.774;2022-11-15T04:11:27;2.95;;;2.35;;
29774;SDS011;16676;51.202;6.774;2022-11-15T04:15:29;3.75;;;2.30;;
29774;SDS011;16676;51.202;6.774;2022-11-15T04:19:51;2.80;;;2.15;;
29774;SDS011;16676;51.202;6.774;2022-11-15T04:24:30;3.03;;;2.47;;
29774;SDS011;16676;51.202;6.774;2022-11-15T04:28:53;3.35;;;2.33;;
29774;SDS011;16676;51.202;6.774;2022-11-15T04:33:12;3.08;;;2.15;;
29774;SDS011;16676;51.202;6.774;2022-11-15T04:37:15;3.08;;;2.20;;
29774;SDS011;16676;51.202;6.774;2022-11-15T04:41:17;3.28;;;2.28;;
29774;SDS011;16676;51.202;6.774;2022-11-15T04:45:20;3.03;;;2.20;;
29774;SDS011;16676;51.202;6.774;2022-11-15T04:49:22;3.40;;;2.40;;
29774;SDS011;16676;51.202;6.774;2022-11-15T04:53:24;3.13;;;2.22;;
29774;SDS011;16676;51.202;6.774;2022-11-15T04:57:26;2.88;;;2.30;;
29774;SDS011;16676;51.202;6.774;2022-11-15T05:01:29;4.35;;;2.50;;
29774;SDS011;16676;51.202;6.774;2022-11-15T05:05:31;3.63;;;2.60;;
29774;SDS011;16676;51.202;6.774;2022-11-15T05:09:33;3.50;;;2.45;;
29774;SDS011;16676;51.202;6.774;2022-11-15T05:13:35;3.10;;;2.30;;
29774;SDS011;16676;51.202;6.774;2022-11-15T05:17:38;3.35;;;2.40;;
29774;SDS011;16676;51.202;6.774;2022-11-15T05:21:40;2.55;;;2.17;;
29774;SDS011;16676;51.202;6.774;2022-11-15T05:25:42;3.00;;;2.00;;
29774;SDS011;16676;51.202;6.774;2022-11-15T05:29:44;3.63;;;2.28;;
29774;SDS011;16676;51.202;6.774;2022-11-15T05:33:48;3.08;;;2.38;;
29774;SDS011;16676;51.202;6.774;2022-11-15T05:37:51;3.40;;;2.53;;
29774;SDS011;16676;51.202;6.774;2022-11-15T05:41:54;2.88;;;1.98;;
29774;SDS011;16676;51.202;6.774;2022-11-15T05:45:59;4.75;;;2.50;;
29774;SDS011;16676;51.202;6.774;2022-11-15T05:50:04;3.95;;;2.35;;
29774;SDS011;16676;51.202;6.774;2022-11-15T05:54:06;2.25;;;1.92;;
29774;SDS011;16676;51.202;6.774;2022-11-15T05:58:09;4.10;;;2.42;;
29774;SDS011;16676;51.202;6.774;2022-11-15T06:02:11;3.83;;;2.50;;
29774;SDS011;16676;51.202;6.774;2022-11-15T06:06:14;5.30;;;2.45;;
29774;SDS011;16676;51.202;6.774;2022-11-15T06:10:16;3.63;;;2.15;;
29774;SDS011;16676;51.202;6.774;2022-11-15T06:14:18;3.40;;;2.40;;
29774;SDS011;16676;51.202;6.774;2022-11-15T06:18:20;2.92;;;2.17;;
29774;SDS011;16676;51.202;6.774;2022-11-15T06:22:23;3.45;;;2.50;;
29774;SDS011;16676;51.202;6.774;2022-11-15T06:26:25;3.95;;;2.40;;
29774;SDS011;16676;51.202;6.774;2022-11-15T06:30:27;3.53;;;2.47;;
29774;SDS011;16676;51.202;6.774;2022-11-15T06:34:29;4.53;;;2.45;;
29774;SDS011;16676;51.202;6.774;2022-11-15T06:42:36;4.40;;;2.28;;
29774;SDS011;16676;51.202;6.774;2022-11-15T06:46:38;3.88;;;2.40;;
29774;SDS011;16676;51.202;6.774;2022-11-15T06:50:40;4.32;;;2.25;;
29774;SDS011;16676;51.202;6.774;2022-11-15T06:54:44;5.80;;;2.90;;
29774;SDS011;16676;51.202;6.774;2022-11-15T06:58:46;3.80;;;2.80;;
29774;SDS011;16676;51.202;6.774;2022-11-15T07:02:48;4.47;;;2.60;;
29774;SDS011;16676;51.202;6.774;2022-11-15T07:06:50;6.90;;;2.30;;
29774;SDS011;16676;51.202;6.774;2022-11-15T07:10:53;4.43;;;2.58;;
29774;SDS011;16676;51.202;6.774;2022-11-15T07:14:55;5.28;;;2.40;;
29774;SDS011;16676;51.202;6.774;2022-11-15T07:18:57;3.92;;;2.17;;
29774;SDS011;16676;51.202;6.774;2022-11-15T07:23:00;4.88;;;2.20;;
29774;SDS011;16676;51.202;6.774;2022-11-15T07:27:03;3.40;;;2.00;;
29774;SDS011;16676;51.202;6.774;2022-11-15T07:31:06;3.58;;;1.60;;
29774;SDS011;16676;51.202;6.774;2022-11-15T07:35:09;2.83;;;1.80;;
29774;SDS011;16676;51.202;6.774;2022-11-15T07:39:11;3.78;;;1.70;;
29774;SDS011;16676;51.202;6.774;2022-11-15T07:43:15;4.13;;;1.58;;
29774;SDS011;16676;51.202;6.774;2022-11-15T07:47:17;3.35;;;1.52;;
29774;SDS011;16676;51.202;6.774;2022-11-15T07:51:19;2.70;;;1.83;;
29774;SDS011;16676;51.202;6.774;2022-11-15T07:55:21;5.53;;;1.50;;
29774;SDS011;16676;51.202;6.774;2022-11-15T07:59:25;3.05;;;1.60;;
29774;SDS011;16676;51.202;6.774;2022-11-15T08:03:27;3.55;;;1.70;;
29774;SDS011;16676;51.202;6.774;2022-11-15T08:07:29;3.85;;;1.52;;
29774;SDS011;16676;51.202;6.774;2022-11-15T08:11:32;2.15;;;1.38;;
29774;SDS011;16676;51.202;6.774;2022-11-15T08:15:35;3.97;;;1.50;;
29774;SDS011;16676;51.202;6.774;2022-11-15T08:19:38;4.15;;;1.77;;
29774;SDS011;16676;51.202;6.774;2022-11-15T08:23:40;2.72;;;1.40;;
29774;SDS011;16676;51.202;6.774;2022-11-15T08:27:42;2.15;;;1.40;;
29774;SDS011;16676;51.202;6.774;2022-11-15T08:31:46;2.78;;;1.10;;
29774;SDS011;16676;51.202;6.774;2022-11-15T08:35:48;1.70;;;1.20;;
29774;SDS011;16676;51.202;6.774;2022-11-15T08:39:50;2.80;;;1.33;;
29774;SDS011;16676;51.202;6.774;2022-11-15T08:43:52;2.97;;;1.20;;
29774;SDS011;16676;51.202;6.774;2022-11-15T08:47:55;6.75;;;1.50;;
29774;SDS011;16676;51.202;6.774;2022-11-15T08:51:57;2.17;;;1.48;;
29774;SDS011;16676;51.202;6.774;2022-11-15T08:55:59;6.28;;;1.20;;
29774;SDS011;16676;51.202;6.774;2022-11-15T09:00:01;5.43;;;1.40;;
29774;SDS011;16676;51.202;6.774;2022-11-15T09:04:05;2.25;;;1.10;;
29774;SDS011;16676;51.202;6.774;2022-11-15T09:08:07;2.95;;;1.00;;
29774;SDS011;16676;51.202;6.774;2022-11-15T09:12:10;12.75;;;1.50;;
29774;SDS011;16676;51.202;6.774;2022-11-15T09:16:12;1.83;;;1.10;;
29774;SDS011;16676;51.202;6.774;2022-11-15T09:20:16;2.10;;;1.20;;
29774;SDS011;16676;51.202;6.774;2022-11-15T09:24:18;2.22;;;1.17;;
29774;SDS011;16676;51.202;6.774;2022-11-15T09:28:21;1.45;;;1.08;;
29774;SDS011;16676;51.202;6.774;2022-11-15T09:32:23;2.20;;;1.00;;
29774;SDS011;16676;51.202;6.774;2022-11-15T09:36:26;4.20;;;0.77;;
29774;SDS011;16676;51.202;6.774;2022-11-15T09:40:29;2.42;;;0.98;;
29774;SDS011;16676;51.202;6.774;2022-11-15T09:44:42;3.08;;;1.33;;
29774;SDS011;16676;51.202;6.774;2022-11-15T09:48:53;3.30;;;0.90;;
29774;SDS011;16676;51.202;6.774;2022-11-15T09:52:58;2.42;;;1.20;;
29774;SDS011;16676;51.202;6.774;2022-11-15T09:57:03;1.27;;;0.90;;
29774;SDS011;16676;51.202;6.774;2022-11-15T10:01:08;2.10;;;1.20;;
29774;SDS011;16676;51.202;6.774;2022-11-15T10:05:19;1.42;;;1.02;;
29774;SDS011;16676;51.202;6.774;2022-11-15T10:09:25;2.08;;;1.08;;
29774;SDS011;16676;51.202;6.774;2022-11-15T10:13:31;2.63;;;0.93;;
29774;SDS011;16676;51.202;6.774;2022-11-15T10:17:56;0.85;;;0.70;;
29774;SDS011;16676;51.202;6.774;2022-11-15T10:22:20;4.65;;;1.20;;
29774;SDS011;16676;51.202;6.774;2022-11-15T10:26:28;1.17;;;0.85;;
29774;SDS011;16676;51.202;6.774;2022-11-15T10:30:31;2.28;;;0.80;;
29774;SDS011;16676;51.202;6.774;2022-11-15T10:34:36;2.08;;;0.80;;
29774;SDS011;16676;51.202;6.774;2022-11-15T10:38:49;1.80;;;0.75;;
29774;SDS011;16676;51.202;6.774;2022-11-15T10:43:04;2.72;;;0.90;;
29774;SDS011;16676;51.202;6.774;2022-11-15T10:47:20;5.88;;;0.90;;
29774;SDS011;16676;51.202;6.774;2022-11-15T10:51:25;1.73;;;0.80;;
29774;SDS011;16676;51.202;6.774;2022-11-15T10:55:29;2.95;;;0.82;;
29774;SDS011;16676;51.202;6.774;2022-11-15T10:59:35;2.05;;;0.80;;
29774;SDS011;16676;51.202;6.774;2022-11-15T11:03:39;6.03;;;0.75;;
29774;SDS011;16676;51.202;6.774;2022-11-15T11:07:43;2.60;;;0.80;;
29774;SDS011;16676;51.202;6.774;2022-11-15T11:11:59;1.85;;;0.95;;
29774;SDS011;16676;51.202;6.774;2022-11-15T11:16:23;2.08;;;0.63;;
29774;SDS011;16676;51.202;6.774;2022-11-15T11:20:36;2.97;;;0.60;;
29774;SDS011;16676;51.202;6.774;2022-11-15T11:24:43;1.88;;;0.80;;
29774;SDS011;16676;51.202;6.774;2022-11-15T11:28:51;2.97;;;0.80;;
29774;SDS011;16676;51.202;6.774;2022-11-15T11:33:05;1.20;;;0.50;;
29774;SDS011;16676;51.202;6.774;2022-11-15T11:37:19;4.22;;;0.90;;
29774;SDS011;16676;51.202;6.774;2022-11-15T11:41:43;4.05;;;0.55;;
29774;SDS011;16676;51.202;6.774;2022-11-15T11:45:58;3.90;;;0.90;;
29774;SDS011;16676;51.202;6.774;2022-11-15T11:50:11;1.02;;;0.40;;
29774;SDS011;16676;51.202;6.774;2022-11-15T11:54:19;2.25;;;0.60;;
29774;SDS011;16676;51.202;6.774;2022-11-15T11:58:25;4.15;;;0.80;;
29774;SDS011;16676;51.202;6.774;2022-11-15T12:02:36;2.38;;;0.60;;
29774;SDS011;16676;51.202;6.774;2022-11-15T12:06:45;2.72;;;0.68;;
29774;SDS011;16676;51.202;6.774;2022-11-15T12:10:52;3.10;;;0.60;;
29774;SDS011;16676;51.202;6.774;2022-11-15T12:15:00;4.47;;;0.77;;
29774;SDS011;16676;51.202;6.774;2022-11-15T12:19:07;1.67;;;0.70;;
29774;SDS011;16676;51.202;6.774;2022-11-15T12:23:12;2.35;;;0.60;;
29774;SDS011;16676;51.202;6.774;2022-11-15T12:27:19;1.95;;;0.50;;
29774;SDS011;16676;51.202;6.774;2022-11-15T12:31:36;5.07;;;0.98;;
29774;SDS011;16676;51.202;6.774;2022-11-15T12:35:42;5.32;;;1.00;;
29774;SDS011;16676;51.202;6.774;2022-11-15T12:49:00;2.28;;;0.60;;
29774;SDS011;16676;51.202;6.774;2022-11-15T12:57:38;2.67;;;0.60;;
29774;SDS011;16676;51.202;6.774;2022-11-15T13:01:54;4.65;;;0.60;;
29774;SDS011;16676;51.202;6.774;2022-11-15T13:06:05;1.92;;;0.73;;
29774;SDS011;16676;51.202;6.774;2022-11-15T13:10:31;1.27;;;0.50;;
29774;SDS011;16676;51.202;6.774;2022-11-15T13:14:37;2.28;;;0.60;;
29774;SDS011;16676;51.202;6.774;2022-11-15T13:18:42;4.18;;;0.50;;
29774;SDS011;16676;51.202;6.774;2022-11-15T13:22:45;1.80;;;0.50;;
29774;SDS011;16676;51.202;6.774;2022-11-15T13:26:56;4.70;;;0.70;;
29774;SDS011;16676;51.202;6.774;2022-11-15T13:31:02;10.45;;;0.80;;
29774;SDS011;16676;51.202;6.774;2022-11-15T13:35:23;2.90;;;0.60;;
29774;SDS011;16676;51.202;6.774;2022-11-15T13:39:27;2.45;;;0.50;;
29774;SDS011;16676;51.202;6.774;2022-11-15T13:43:31;1.95;;;0.50;;
29774;SDS011;16676;51.202;6.774;2022-11-15T13:47:35;1.60;;;0.50;;
29774;SDS011;16676;51.202;6.774;2022-11-15T13:51:39;1.30;;;0.47;;
29774;SDS011;16676;51.202;6.774;2022-11-15T13:55:44;2.33;;;0.57;;
29774;SDS011;16676;51.202;6.774;2022-11-15T13:59:47;2.05;;;0.77;;
29774;SDS011;16676;51.202;6.774;2022-11-15T14:03:53;2.67;;;0.55;;
29774;SDS011;16676;51.202;6.774;2022-11-15T14:07:59;2.33;;;0.88;;
29774;SDS011;16676;51.202;6.774;2022-11-15T14:16:38;2.50;;;0.65;;
29774;SDS011;16676;51.202;6.774;2022-11-15T14:20:41;1.73;;;0.43;;
29774;SDS011;16676;51.202;6.774;2022-11-15T14:24:45;1.65;;;0.60;;
29774;SDS011;16676;51.202;6.774;2022-11-15T14:29:21;1.30;;;0.50;;
29774;SDS011;16676;51.202;6.774;2022-11-15T14:33:25;1.65;;;0.52;;
29774;SDS011;16676;51.202;6.774;2022-11-15T14:37:31;1.75;;;0.68;;
29774;SDS011;16676;51.202;6.774;2022-11-15T14:41:36;1.33;;;0.50;;
29774;SDS011;16676;51.202;6.774;2022-11-15T14:45:39;2.65;;;0.60;;
29774;SDS011;16676;51.202;6.774;2022-11-15T14:49:41;1.45;;;0.60;;
29774;SDS011;16676;51.202;6.774;2022-11-15T14:53:44;2.53;;;0.68;;
29774;SDS011;16676;51.202;6.774;2022-11-15T14:57:49;1.33;;;0.50;;
29774;SDS011;16676;51.202;6.774;2022-11-15T15:01:51;2.63;;;0.60;;
29774;SDS011;16676;51.202;6.774;2022-11-15T15:05:53;3.38;;;0.70;;
29774;SDS011;16676;51.202;6.774;2022-11-15T15:09:56;1.63;;;0.60;;
29774;SDS011;16676;51.202;6.774;2022-11-15T15:14:00;2.60;;;0.60;;
29774;SDS011;16676;51.202;6.774;2022-11-15T15:18:02;3.60;;;0.63;;
29774;SDS011;16676;51.202;6.774;2022-11-15T15:22:05;3.38;;;0.57;;
29774;SDS011;16676;51.202;6.774;2022-11-15T15:26:07;1.40;;;0.63;;
29774;SDS011;16676;51.202;6.774;2022-11-15T15:30:12;0.85;;;0.50;;
29774;SDS011;16676;51.202;6.774;2022-11-15T15:34:14;2.72;;;0.70;;
29774;SDS011;16676;51.202;6.774;2022-11-15T15:38:16;1.15;;;0.50;;
29774;SDS011;16676;51.202;6.774;2022-11-15T15:42:18;3.10;;;0.68;;
29774;SDS011;16676;51.202;6.774;2022-11-15T15:46:22;1.17;;;0.70;;
29774;SDS011;16676;51.202;6.774;2022-11-15T15:50:26;1.70;;;0.70;;
29774;SDS011;16676;51.202;6.774;2022-11-15T15:54:37;1.60;;;0.75;;
29774;SDS011;16676;51.202;6.774;2022-11-15T15:58:55;1.95;;;1.10;;
29774;SDS011;16676;51.202;6.774;2022-11-15T16:02:58;3.70;;;0.95;;
29774;SDS011;16676;51.202;6.774;2022-11-15T16:07:00;3.95;;;0.90;;
29774;SDS011;16676;51.202;6.774;2022-11-15T16:11:04;1.98;;;0.85;;
29774;SDS011;16676;51.202;6.774;2022-11-15T16:15:07;1.20;;;0.90;;
29774;SDS011;16676;51.202;6.774;2022-11-15T16:19:11;2.60;;;1.00;;
29774;SDS011;16676;51.202;6.774;2022-11-15T16:23:13;2.35;;;1.00;;
29774;SDS011;16676;51.202;6.774;2022-11-15T16:27:17;3.55;;;0.75;;
29774;SDS011;16676;51.202;6.774;2022-11-15T16:31:20;3.22;;;0.70;;
29774;SDS011;16676;51.202;6.774;2022-11-15T16:35:24;2.58;;;0.80;;
29774;SDS011;16676;51.202;6.774;2022-11-15T16:39:26;2.00;;;0.75;;
29774;SDS011;16676;51.202;6.774;2022-11-15T16:43:30;2.70;;;1.00;;
29774;SDS011;16676;51.202;6.774;2022-11-15T16:47:32;3.47;;;1.00;;
29774;SDS011;16676;51.202;6.774;2022-11-15T16:51:35;1.75;;;0.80;;
29774;SDS011;16676;51.202;6.774;2022-11-15T16:55:38;1.48;;;0.85;;
29774;SDS011;16676;51.202;6.774;2022-11-15T16:59:40;1.58;;;0.90;;
29774;SDS011;16676;51.202;6.774;2022-11-15T17:03:42;1.45;;;0.88;;
29774;SDS011;16676;51.202;6.774;2022-11-15T17:07:47;2.70;;;1.05;;
29774;SDS011;16676;51.202;6.774;2022-11-15T17:11:51;3.60;;;0.93;;
29774;SDS011;16676;51.202;6.774;2022-11-15T17:16:01;2.95;;;0.88;;
29774;SDS011;16676;51.202;6.774;2022-11-15T17:20:05;1.50;;;0.93;;
29774;SDS011;16676;51.202;6.774;2022-11-15T17:24:11;2.20;;;0.75;;
29774;SDS011;16676;51.202;6.774;2022-11-15T17:28:13;0.77;;;0.68;;
29774;SDS011;16676;51.202;6.774;2022-11-15T17:32:15;1.65;;;0.70;;
29774;SDS011;16676;51.202;6.774;2022-11-15T17:36:17;4.07;;;0.90;;
29774;SDS011;16676;51.202;6.774;2022-11-15T17:40:20;2.38;;;0.90;;
29774;SDS011;16676;51.202;6.774;2022-11-15T17:44:22;1.58;;;0.75;;
29774;SDS011;16676;51.202;6.774;2022-11-15T17:48:24;1.95;;;1.00;;
29774;SDS011;16676;51.202;6.774;2022-11-15T17:52:27;2.03;;;0.90;;
29774;SDS011;16676;51.202;6.774;2022-11-15T17:56:30;2.42;;;0.90;;
29774;SDS011;16676;51.202;6.774;2022-11-15T18:00:32;4.10;;;0.90;;
29774;SDS011;16676;51.202;6.774;2022-11-15T18:04:36;1.83;;;0.98;;
29774;SDS011;16676;51.202;6.774;2022-11-15T18:08:40;1.17;;;0.77;;
29774;SDS011;16676;51.202;6.774;2022-11-15T18:12:45;4.80;;;1.13;;
29774;SDS011;16676;51.202;6.774;2022-11-15T18:16:47;6.75;;;1.05;;
29774;SDS011;16676;51.202;6.774;2022-11-15T18:20:49;1.83;;;0.95;;
29774;SDS011;16676;51.202;6.774;2022-11-15T18:24:59;2.42;;;0.70;;
29774;SDS011;16676;51.202;6.774;2022-11-15T18:29:03;2.13;;;1.17;;
29774;SDS011;16676;51.202;6.774;2022-11-15T18:33:05;3.05;;;1.35;;
29774;SDS011;16676;51.202;6.774;2022-11-15T18:37:07;3.80;;;1.30;;
29774;SDS011;16676;51.202;6.774;2022-11-15T18:41:09;4.75;;;1.73;;
29774;SDS011;16676;51.202;6.774;2022-11-15T18:45:14;4.93;;;1.58;;
29774;SDS011;16676;51.202;6.774;2022-11-15T18:49:16;6.35;;;1.40;;
29774;SDS011;16676;51.202;6.774;2022-11-15T18:53:19;3.17;;;1.20;;
29774;SDS011;16676;51.202;6.774;2022-11-15T18:57:21;2.55;;;1.48;;
29774;SDS011;16676;51.202;6.774;2022-11-15T19:01:25;6.20;;;1.60;;
29774;SDS011;16676;51.202;6.774;2022-11-15T19:05:28;7.57;;;1.63;;
29774;SDS011;16676;51.202;6.774;2022-11-15T19:09:30;6.95;;;2.10;;
29774;SDS011;16676;51.202;6.774;2022-11-15T19:13:34;7.10;;;2.95;;
29774;SDS011;16676;51.202;6.774;2022-11-15T19:17:37;8.65;;;3.30;;
29774;SDS011;16676;51.202;6.774;2022-11-15T19:21:39;7.10;;;3.13;;
29774;SDS011;16676;51.202;6.774;2022-11-15T19:25:41;7.78;;;2.95;;
29774;SDS011;16676;51.202;6.774;2022-11-15T19:29:43;8.48;;;2.97;;
29774;SDS011;16676;51.202;6.774;2022-11-15T19:33:47;7.57;;;3.10;;
29774;SDS011;16676;51.202;6.774;2022-11-15T19:37:49;7.32;;;3.22;;
29774;SDS011;16676;51.202;6.774;2022-11-15T19:41:50;5.22;;;3.15;;
29774;SDS011;16676;51.202;6.774;2022-11-15T19:45:53;5.90;;;2.67;;
29774;SDS011;16676;51.202;6.774;2022-11-15T19:49:58;7.55;;;3.40;;
29774;SDS011;16676;51.202;6.774;2022-11-15T19:54:00;6.47;;;2.97;;
29774;SDS011;16676;51.202;6.774;2022-11-15T19:58:05;7.05;;;2.90;;
29774;SDS011;16676;51.202;6.774;2022-11-15T20:02:07;6.53;;;2.97;;
29774;SDS011;16676;51.202;6.774;2022-11-15T20:06:13;5.82;;;3.05;;
29774;SDS011;16676;51.202;6.774;2022-11-15T20:10:16;4.85;;;2.60;;
29774;SDS011;16676;51.202;6.774;2022-11-15T20:14:18;5.82;;;2.58;;
29774;SDS011;16676;51.202;6.774;2022-11-15T20:18:20;4.82;;;2.70;;
29774;SDS011;16676;51.202;6.774;2022-11-15T20:22:24;5.63;;;2.20;;
29774;SDS011;16676;51.202;6.774;2022-11-15T20:26:26;6.57;;;2.58;;
29774;SDS011;16676;51.202;6.774;2022-11-15T20:30:31;5.90;;;2.60;;
29774;SDS011;16676;51.202;6.774;2022-11-15T20:34:33;4.32;;;2.40;;
29774;SDS011;16676;51.202;6.774;2022-11-15T20:38:36;5.47;;;2.60;;
29774;SDS011;16676;51.202;6.774;2022-11-15T20:42:38;4.97;;;2.20;;
29774;SDS011;16676;51.202;6.774;2022-11-15T20:46:40;5.18;;;2.13;;
29774;SDS011;16676;51.202;6.774;2022-11-15T20:50:43;5.65;;;2.05;;
29774;SDS011;16676;51.202;6.774;2022-11-15T20:54:47;4.20;;;2.22;;
29774;SDS011;16676;51.202;6.774;2022-11-15T20:58:49;4.68;;;2.42;;
29774;SDS011;16676;51.202;6.774;2022-11-15T21:02:52;3.78;;;1.88;;
29774;SDS011;16676;51.202;6.774;2022-11-15T21:06:54;6.28;;;2.03;;
29774;SDS011;16676;51.202;6.774;2022-11-15T21:10:58;6.45;;;2.47;;
29774;SDS011;16676;51.202;6.774;2022-11-15T21:15:18;5.43;;;2.38;;
29774;SDS011;16676;51.202;6.774;2022-11-15T21:19:20;4.07;;;2.65;;
29774;SDS011;16676;51.202;6.774;2022-11-15T21:23:22;9.45;;;3.38;;
29774;SDS011;16676;51.202;6.774;2022-11-15T21:27:25;6.22;;;3.75;;
29774;SDS011;16676;51.202;6.774;2022-11-15T21:31:27;8.27;;;3.75;;
29774;SDS011;16676;51.202;6.774;2022-11-15T21:35:29;5.72;;;3.60;;
29774;SDS011;16676;51.202;6.774;2022-11-15T21:39:32;5.55;;;3.30;;
29774;SDS011;16676;51.202;6.774;2022-11-15T21:43:35;5.85;;;3.30;;
29774;SDS011;16676;51.202;6.774;2022-11-15T21:47:37;6.40;;;3.22;;
29774;SDS011;16676;51.202;6.774;2022-11-15T21:51:39;4.40;;;2.72;;
29774;SDS011;16676;51.202;6.774;2022-11-15T21:55:41;8.43;;;2.90;;
29774;SDS011;16676;51.202;6.774;2022-11-15T21:59:45;7.80;;;3.15;;
29774;SDS011;16676;51.202;6.774;2022-11-15T22:04:04;4.68;;;2.70;;
29774;SDS011;16676;51.202;6.774;2022-11-15T22:08:06;4.40;;;2.53;;
29774;SDS011;16676;51.202;6.774;2022-11-15T22:12:08;5.28;;;2.70;;
29774;SDS011;16676;51.202;6.774;2022-11-15T22:16:11;3.67;;;2.50;;
29774;SDS011;16676;51.202;6.774;2022-11-15T22:20:14;4.97;;;2.28;;
29774;SDS011;16676;51.202;6.774;2022-11-15T22:24:16;6.95;;;2.10;;
29774;SDS011;16676;51.202;6.774;2022-11-15T22:28:19;6.10;;;2.50;;
29774;SDS011;16676;51.202;6.774;2022-11-15T22:32:23;4.97;;;2.20;;
29774;SDS011;16676;51.202;6.774;2022-11-15T22:36:25;3.90;;;2.15;;
29774;SDS011;16676;51.202;6.774;2022-11-15T22:40:27;5.85;;;2.50;;
29774;SDS011;16676;51.202;6.774;2022-11-15T22:44:29;3.50;;;2.20;;
29774;SDS011;16676;51.202;6.774;2022-11-15T22:48:33;4.82;;;2.35;;
29774;SDS011;16676;51.202;6.774;2022-11-15T22:52:37;4.03;;;2.10;;
29774;SDS011;16676;51.202;6.774;2022-11-15T22:56:39;4.75;;;2.10;;
29774;SDS011;16676;51.202;6.774;2022-11-15T23:00:41;5.60;;;2.05;;
29774;SDS011;16676;51.202;6.774;2022-11-15T23:04:45;3.70;;;2.00;;
29774;SDS011;16676;51.202;6.774;2022-11-15T23:08:47;3.80;;;2.10;;
29774;SDS011;16676;51.202;6.774;2022-11-15T23:12:49;3.33;;;1.95;;
29774;SDS011;16676;51.202;6.774;2022-11-15T23:17:08;4.70;;;2.08;;
29774;SDS011;16676;51.202;6.774;2022-11-15T23:21:14;4.38;;;2.15;;
29774;SDS011;16676;51.202;6.774;2022-11-15T23:25:39;4.47;;;2.15;;
29774;SDS011;16676;51.202;6.774;2022-11-15T23:29:42;3.72;;;1.90;;
29774;SDS011;16676;51.202;6.774;2022-11-15T23:34:01;5.22;;;1.90;;
29774;SDS011;16676;51.202;6.774;2022-11-15T23:38:05;3.63;;;1.75;;
29774;SDS011;16676;51.202;6.774;2022-11-15T23:42:07;3.78;;;1.83;;
29774;SDS011;16676;51.202;6.774;2022-11-15T23:46:18;6.47;;;1.60;;
29774;SDS011;16676;51.202;6.774;2022-11-15T23:50:21;2.35;;;1.60;;
29774;SDS011;16676;51.202;6.774;2022-11-15T23:54:24;2.45;;;1.70;;
29774;SDS011;16676;51.202;6.774;2022-11-15T23:58:27;3.25;;;1.90;;
